LZTT/TAT METAR and TAF weather

Enter ICAO airport designator
Station Type Date Time Source
LZTT METAR 2022/05/26 05:00 UTC NOAA

LZTT 260500Z 27014KT 9999 FEW060 11/07 Q1019 NOSIG


Station Type Date Time Source
LZTT Decoded METAR 2022/05/26 05:00 UTC NOAA

Poprad / Tatry, Slovakia (LZTT) 49-04N 020-15E 695M
May 26, 2022 - 01:00 AM EDT / 2022.05.26 0500 UTC
Wind: from the W (270 degrees) at 16 MPH (14 KT):0
Visibility: greater than 7 mile(s):0
Sky conditions: mostly clear
Temperature: 51 F (11 C)
Dew Point: 44 F (7 C)
Relative Humidity: 76%
Pressure (altimeter): 30.09 in. Hg (1019 hPa)
ob: LZTT 260500Z 27014KT 9999 FEW060 11/07 Q1019 NOSIG
cycle: 5

Station Type Date Time Source
LZTT TAF 2022/05/26 06:12 UTC NOAA

TAF LZTT 260515Z 2606/2706 26020KT 9999 SCT065
BECMG 2619/2621 26012KT

Example: see airport list